sensor_id;sensor_type;location;lat;lon;timestamp;P1;durP1;ratioP1;P2;durP2;ratioP2
24439;SDS011;12618;54.386;18.394;2022-11-15T00:00:39;76.45;;;42.60;;
24439;SDS011;12618;54.386;18.394;2022-11-15T00:03:10;67.25;;;39.50;;
24439;SDS011;12618;54.386;18.394;2022-11-15T00:05:46;75.87;;;41.68;;
24439;SDS011;12618;54.386;18.394;2022-11-15T00:08:17;76.25;;;42.00;;
24439;SDS011;12618;54.386;18.394;2022-11-15T00:10:55;76.95;;;42.45;;
24439;SDS011;12618;54.386;18.394;2022-11-15T00:13:26;86.35;;;45.67;;
24439;SDS011;12618;54.386;18.394;2022-11-15T00:15:58;76.77;;;41.18;;
24439;SDS011;12618;54.386;18.394;2022-11-15T00:18:30;78.55;;;41.88;;
24439;SDS011;12618;54.386;18.394;2022-11-15T00:21:05;77.17;;;40.75;;
24439;SDS011;12618;54.386;18.394;2022-11-15T00:23:40;92.20;;;47.17;;
24439;SDS011;12618;54.386;18.394;2022-11-15T00:26:12;72.62;;;39.70;;
24439;SDS011;12618;54.386;18.394;2022-11-15T00:28:44;71.90;;;40.00;;
24439;SDS011;12618;54.386;18.394;2022-11-15T00:31:15;68.78;;;37.40;;
24439;SDS011;12618;54.386;18.394;2022-11-15T00:33:45;69.65;;;36.80;;
24439;SDS011;12618;54.386;18.394;2022-11-15T00:36:16;66.57;;;37.05;;
24439;SDS011;12618;54.386;18.394;2022-11-15T00:38:47;64.42;;;33.98;;
24439;SDS011;12618;54.386;18.394;2022-11-15T00:41:17;67.85;;;36.70;;
24439;SDS011;12618;54.386;18.394;2022-11-15T00:43:48;67.95;;;37.17;;
24439;SDS011;12618;54.386;18.394;2022-11-15T00:46:19;63.25;;;33.75;;
24439;SDS011;12618;54.386;18.394;2022-11-15T00:48:50;63.68;;;35.45;;
24439;SDS011;12618;54.386;18.394;2022-11-15T00:51:20;65.30;;;35.48;;
24439;SDS011;12618;54.386;18.394;2022-11-15T00:53:51;64.30;;;35.05;;
24439;SDS011;12618;54.386;18.394;2022-11-15T00:56:22;63.25;;;34.33;;
24439;SDS011;12618;54.386;18.394;2022-11-15T00:58:52;71.90;;;37.90;;
24439;SDS011;12618;54.386;18.394;2022-11-15T01:01:23;72.42;;;37.53;;
24439;SDS011;12618;54.386;18.394;2022-11-15T01:03:54;70.85;;;37.23;;
24439;SDS011;12618;54.386;18.394;2022-11-15T01:06:25;79.92;;;42.20;;
24439;SDS011;12618;54.386;18.394;2022-11-15T01:08:55;78.52;;;41.20;;
24439;SDS011;12618;54.386;18.394;2022-11-15T01:11:26;77.20;;;40.75;;
24439;SDS011;12618;54.386;18.394;2022-11-15T01:13:57;75.92;;;39.23;;
24439;SDS011;12618;54.386;18.394;2022-11-15T01:16:27;77.62;;;38.75;;
24439;SDS011;12618;54.386;18.394;2022-11-15T01:18:58;75.22;;;39.10;;
24439;SDS011;12618;54.386;18.394;2022-11-15T01:21:29;78.80;;;38.95;;
24439;SDS011;12618;54.386;18.394;2022-11-15T01:24:00;78.30;;;38.98;;
24439;SDS011;12618;54.386;18.394;2022-11-15T01:26:31;71.15;;;36.10;;
24439;SDS011;12618;54.386;18.394;2022-11-15T01:29:01;76.87;;;37.85;;
24439;SDS011;12618;54.386;18.394;2022-11-15T01:31:32;76.12;;;37.63;;
24439;SDS011;12618;54.386;18.394;2022-11-15T01:34:03;74.77;;;37.23;;
24439;SDS011;12618;54.386;18.394;2022-11-15T01:36:34;73.55;;;36.35;;
24439;SDS011;12618;54.386;18.394;2022-11-15T01:39:05;73.45;;;36.75;;
24439;SDS011;12618;54.386;18.394;2022-11-15T01:41:35;83.95;;;40.70;;
24439;SDS011;12618;54.386;18.394;2022-11-15T01:47:08;72.72;;;36.77;;
24439;SDS011;12618;54.386;18.394;2022-11-15T01:49:44;71.95;;;36.48;;
24439;SDS011;12618;54.386;18.394;2022-11-15T01:52:16;72.95;;;36.13;;
24439;SDS011;12618;54.386;18.394;2022-11-15T01:54:50;74.62;;;36.00;;
24439;SDS011;12618;54.386;18.394;2022-11-15T01:57:23;73.20;;;36.40;;
24439;SDS011;12618;54.386;18.394;2022-11-15T01:59:54;81.22;;;37.42;;
24439;SDS011;12618;54.386;18.394;2022-11-15T02:02:27;70.05;;;34.33;;
24439;SDS011;12618;54.386;18.394;2022-11-15T02:04:58;74.55;;;35.83;;
24439;SDS011;12618;54.386;18.394;2022-11-15T02:07:28;71.37;;;35.55;;
24439;SDS011;12618;54.386;18.394;2022-11-15T02:10:06;78.35;;;34.70;;
24439;SDS011;12618;54.386;18.394;2022-11-15T02:12:38;73.62;;;35.00;;
24439;SDS011;12618;54.386;18.394;2022-11-15T02:15:09;74.67;;;34.65;;
24439;SDS011;12618;54.386;18.394;2022-11-15T02:17:45;65.47;;;32.30;;
24439;SDS011;12618;54.386;18.394;2022-11-15T02:20:31;75.67;;;35.78;;
24439;SDS011;12618;54.386;18.394;2022-11-15T02:23:07;77.07;;;35.57;;
24439;SDS011;12618;54.386;18.394;2022-11-15T02:29:03;67.10;;;34.18;;
24439;SDS011;12618;54.386;18.394;2022-11-15T02:31:46;71.17;;;34.27;;
24439;SDS011;12618;54.386;18.394;2022-11-15T02:34:28;74.20;;;35.20;;
24439;SDS011;12618;54.386;18.394;2022-11-15T02:37:02;71.30;;;33.78;;
24439;SDS011;12618;54.386;18.394;2022-11-15T02:42:27;79.50;;;35.68;;
24439;SDS011;12618;54.386;18.394;2022-11-15T02:45:21;91.95;;;36.53;;
24439;SDS011;12618;54.386;18.394;2022-11-15T02:47:54;74.27;;;34.35;;
24439;SDS011;12618;54.386;18.394;2022-11-15T02:50:27;81.90;;;36.17;;
24439;SDS011;12618;54.386;18.394;2022-11-15T02:53:00;87.82;;;36.40;;
24439;SDS011;12618;54.386;18.394;2022-11-15T03:06:11;69.77;;;33.42;;
24439;SDS011;12618;54.386;18.394;2022-11-15T03:11:43;63.28;;;30.05;;
24439;SDS011;12618;54.386;18.394;2022-11-15T03:17:15;70.90;;;32.00;;
24439;SDS011;12618;54.386;18.394;2022-11-15T03:19:59;71.77;;;31.48;;
24439;SDS011;12618;54.386;18.394;2022-11-15T03:22:29;69.10;;;32.40;;
24439;SDS011;12618;54.386;18.394;2022-11-15T03:25:04;91.20;;;33.23;;
24439;SDS011;12618;54.386;18.394;2022-11-15T03:27:41;92.72;;;33.35;;
24439;SDS011;12618;54.386;18.394;2022-11-15T03:30:14;80.15;;;31.82;;
24439;SDS011;12618;54.386;18.394;2022-11-15T03:32:47;77.42;;;33.90;;
24439;SDS011;12618;54.386;18.394;2022-11-15T03:35:27;71.85;;;32.25;;
24439;SDS011;12618;54.386;18.394;2022-11-15T03:40:46;63.85;;;29.77;;
24439;SDS011;12618;54.386;18.394;2022-11-15T03:43:18;66.22;;;30.55;;
24439;SDS011;12618;54.386;18.394;2022-11-15T03:46:25;58.98;;;28.38;;
24439;SDS011;12618;54.386;18.394;2022-11-15T03:49:12;55.88;;;27.70;;
24439;SDS011;12618;54.386;18.394;2022-11-15T03:51:45;57.83;;;28.87;;
24439;SDS011;12618;54.386;18.394;2022-11-15T03:54:16;64.47;;;31.30;;
24439;SDS011;12618;54.386;18.394;2022-11-15T03:56:46;61.40;;;28.23;;
24439;SDS011;12618;54.386;18.394;2022-11-15T03:59:17;53.95;;;26.70;;
24439;SDS011;12618;54.386;18.394;2022-11-15T04:01:48;60.60;;;30.43;;
24439;SDS011;12618;54.386;18.394;2022-11-15T04:04:19;57.78;;;28.23;;
24439;SDS011;12618;54.386;18.394;2022-11-15T04:06:49;57.73;;;29.35;;
24439;SDS011;12618;54.386;18.394;2022-11-15T04:09:20;57.55;;;28.98;;
24439;SDS011;12618;54.386;18.394;2022-11-15T04:11:51;68.07;;;30.02;;
24439;SDS011;12618;54.386;18.394;2022-11-15T04:14:22;65.28;;;31.75;;
24439;SDS011;12618;54.386;18.394;2022-11-15T04:16:52;65.57;;;28.05;;
24439;SDS011;12618;54.386;18.394;2022-11-15T04:19:23;70.92;;;33.02;;
24439;SDS011;12618;54.386;18.394;2022-11-15T04:22:12;75.67;;;30.45;;
24439;SDS011;12618;54.386;18.394;2022-11-15T04:25:01;87.20;;;32.73;;
24439;SDS011;12618;54.386;18.394;2022-11-15T04:27:31;63.73;;;30.48;;
24439;SDS011;12618;54.386;18.394;2022-11-15T04:30:02;74.85;;;33.18;;
24439;SDS011;12618;54.386;18.394;2022-11-15T04:32:33;74.50;;;32.25;;
24439;SDS011;12618;54.386;18.394;2022-11-15T04:35:04;81.42;;;31.42;;
24439;SDS011;12618;54.386;18.394;2022-11-15T04:37:35;68.45;;;29.90;;
24439;SDS011;12618;54.386;18.394;2022-11-15T04:40:06;72.25;;;31.05;;
24439;SDS011;12618;54.386;18.394;2022-11-15T04:42:40;66.77;;;29.05;;
24439;SDS011;12618;54.386;18.394;2022-11-15T04:45:12;76.17;;;30.75;;
24439;SDS011;12618;54.386;18.394;2022-11-15T04:47:44;71.02;;;31.90;;
24439;SDS011;12618;54.386;18.394;2022-11-15T04:50:20;73.52;;;31.40;;
24439;SDS011;12618;54.386;18.394;2022-11-15T04:52:52;78.35;;;32.93;;
24439;SDS011;12618;54.386;18.394;2022-11-15T04:55:23;75.92;;;32.30;;
24439;SDS011;12618;54.386;18.394;2022-11-15T04:57:57;71.55;;;30.92;;
24439;SDS011;12618;54.386;18.394;2022-11-15T05:00:29;68.05;;;30.52;;
24439;SDS011;12618;54.386;18.394;2022-11-15T05:03:00;67.90;;;30.37;;
24439;SDS011;12618;54.386;18.394;2022-11-15T05:05:49;65.75;;;29.32;;
24439;SDS011;12618;54.386;18.394;2022-11-15T05:08:20;69.62;;;30.95;;
24439;SDS011;12618;54.386;18.394;2022-11-15T05:10:50;64.12;;;30.20;;
24439;SDS011;12618;54.386;18.394;2022-11-15T05:13:21;65.87;;;28.80;;
24439;SDS011;12618;54.386;18.394;2022-11-15T05:15:52;70.20;;;30.37;;
24439;SDS011;12618;54.386;18.394;2022-11-15T05:18:23;64.25;;;28.95;;
24439;SDS011;12618;54.386;18.394;2022-11-15T05:20:54;56.48;;;27.35;;
24439;SDS011;12618;54.386;18.394;2022-11-15T05:23:25;58.55;;;27.10;;
24439;SDS011;12618;54.386;18.394;2022-11-15T05:25:58;70.47;;;29.18;;
24439;SDS011;12618;54.386;18.394;2022-11-15T05:28:31;74.07;;;31.20;;
24439;SDS011;12618;54.386;18.394;2022-11-15T05:31:03;81.53;;;31.68;;
24439;SDS011;12618;54.386;18.394;2022-11-15T05:33:35;65.45;;;30.02;;
24439;SDS011;12618;54.386;18.394;2022-11-15T05:36:29;62.40;;;29.63;;
24439;SDS011;12618;54.386;18.394;2022-11-15T05:39:01;71.53;;;32.17;;
24439;SDS011;12618;54.386;18.394;2022-11-15T05:41:48;70.37;;;32.13;;
24439;SDS011;12618;54.386;18.394;2022-11-15T05:44:21;69.30;;;31.82;;
24439;SDS011;12618;54.386;18.394;2022-11-15T05:46:53;74.92;;;31.75;;
24439;SDS011;12618;54.386;18.394;2022-11-15T05:49:28;67.40;;;32.45;;
24439;SDS011;12618;54.386;18.394;2022-11-15T05:52:02;80.20;;;31.37;;
24439;SDS011;12618;54.386;18.394;2022-11-15T05:54:37;64.70;;;30.70;;
24439;SDS011;12618;54.386;18.394;2022-11-15T05:57:08;74.82;;;34.70;;
24439;SDS011;12618;54.386;18.394;2022-11-15T05:59:39;71.25;;;32.65;;
24439;SDS011;12618;54.386;18.394;2022-11-15T06:04:43;59.05;;;27.22;;
24439;SDS011;12618;54.386;18.394;2022-11-15T06:07:14;57.05;;;27.37;;
24439;SDS011;12618;54.386;18.394;2022-11-15T06:09:45;62.75;;;29.77;;
24439;SDS011;12618;54.386;18.394;2022-11-15T06:12:15;47.03;;;24.57;;
24439;SDS011;12618;54.386;18.394;2022-11-15T06:14:46;51.88;;;26.45;;
24439;SDS011;12618;54.386;18.394;2022-11-15T06:17:17;47.15;;;24.27;;
24439;SDS011;12618;54.386;18.394;2022-11-15T06:19:47;47.27;;;24.47;;
24439;SDS011;12618;54.386;18.394;2022-11-15T06:22:18;44.77;;;24.07;;
24439;SDS011;12618;54.386;18.394;2022-11-15T06:24:48;50.05;;;24.90;;
24439;SDS011;12618;54.386;18.394;2022-11-15T06:27:19;47.27;;;24.57;;
24439;SDS011;12618;54.386;18.394;2022-11-15T06:29:50;54.60;;;25.50;;
24439;SDS011;12618;54.386;18.394;2022-11-15T06:32:20;53.10;;;26.02;;
24439;SDS011;12618;54.386;18.394;2022-11-15T06:34:51;50.90;;;25.02;;
24439;SDS011;12618;54.386;18.394;2022-11-15T06:37:21;55.20;;;25.60;;
24439;SDS011;12618;54.386;18.394;2022-11-15T06:39:52;50.45;;;24.25;;
24439;SDS011;12618;54.386;18.394;2022-11-15T06:42:23;50.03;;;25.32;;
24439;SDS011;12618;54.386;18.394;2022-11-15T06:44:54;43.85;;;23.30;;
24439;SDS011;12618;54.386;18.394;2022-11-15T06:47:25;52.13;;;26.70;;
24439;SDS011;12618;54.386;18.394;2022-11-15T06:49:55;46.10;;;25.02;;
24439;SDS011;12618;54.386;18.394;2022-11-15T06:52:26;53.30;;;28.02;;
24439;SDS011;12618;54.386;18.394;2022-11-15T06:54:58;55.98;;;29.05;;
24439;SDS011;12618;54.386;18.394;2022-11-15T06:57:29;52.27;;;26.07;;
24439;SDS011;12618;54.386;18.394;2022-11-15T07:00:00;51.40;;;26.77;;
24439;SDS011;12618;54.386;18.394;2022-11-15T07:02:32;44.73;;;23.95;;
24439;SDS011;12618;54.386;18.394;2022-11-15T07:05:03;46.20;;;23.60;;
24439;SDS011;12618;54.386;18.394;2022-11-15T07:07:34;49.88;;;25.05;;
24439;SDS011;12618;54.386;18.394;2022-11-15T07:10:05;49.58;;;24.07;;
24439;SDS011;12618;54.386;18.394;2022-11-15T07:12:37;46.48;;;25.45;;
24439;SDS011;12618;54.386;18.394;2022-11-15T07:15:08;51.45;;;27.27;;
24439;SDS011;12618;54.386;18.394;2022-11-15T07:17:39;54.73;;;28.95;;
24439;SDS011;12618;54.386;18.394;2022-11-15T07:20:10;54.88;;;28.98;;
24439;SDS011;12618;54.386;18.394;2022-11-15T07:22:43;50.30;;;25.27;;
24439;SDS011;12618;54.386;18.394;2022-11-15T07:25:16;46.05;;;23.38;;
24439;SDS011;12618;54.386;18.394;2022-11-15T07:27:53;47.70;;;24.02;;
24439;SDS011;12618;54.386;18.394;2022-11-15T07:30:27;46.20;;;24.35;;
24439;SDS011;12618;54.386;18.394;2022-11-15T07:32:59;46.15;;;24.15;;
24439;SDS011;12618;54.386;18.394;2022-11-15T07:35:30;45.03;;;23.18;;
24439;SDS011;12618;54.386;18.394;2022-11-15T07:38:01;45.67;;;23.52;;
24439;SDS011;12618;54.386;18.394;2022-11-15T07:40:33;49.65;;;25.37;;
24439;SDS011;12618;54.386;18.394;2022-11-15T07:43:04;47.33;;;23.55;;
24439;SDS011;12618;54.386;18.394;2022-11-15T07:45:43;45.67;;;23.03;;
24439;SDS011;12618;54.386;18.394;2022-11-15T07:48:14;47.30;;;24.87;;
24439;SDS011;12618;54.386;18.394;2022-11-15T07:50:45;48.33;;;23.10;;
24439;SDS011;12618;54.386;18.394;2022-11-15T07:53:16;62.50;;;30.65;;
24439;SDS011;12618;54.386;18.394;2022-11-15T07:55:47;60.45;;;29.95;;
24439;SDS011;12618;54.386;18.394;2022-11-15T07:58:17;54.70;;;27.25;;
24439;SDS011;12618;54.386;18.394;2022-11-15T08:00:48;54.53;;;29.10;;
24439;SDS011;12618;54.386;18.394;2022-11-15T08:03:19;58.73;;;30.82;;
24439;SDS011;12618;54.386;18.394;2022-11-15T08:05:50;53.13;;;28.32;;
24439;SDS011;12618;54.386;18.394;2022-11-15T08:08:21;48.20;;;24.98;;
24439;SDS011;12618;54.386;18.394;2022-11-15T08:10:52;46.48;;;24.72;;
24439;SDS011;12618;54.386;18.394;2022-11-15T08:13:23;44.83;;;23.62;;
24439;SDS011;12618;54.386;18.394;2022-11-15T08:16:00;45.38;;;23.00;;
24439;SDS011;12618;54.386;18.394;2022-11-15T08:18:32;43.40;;;22.55;;
24439;SDS011;12618;54.386;18.394;2022-11-15T08:21:03;46.30;;;23.35;;
24439;SDS011;12618;54.386;18.394;2022-11-15T08:23:34;47.65;;;24.40;;
24439;SDS011;12618;54.386;18.394;2022-11-15T08:26:05;41.77;;;22.75;;
24439;SDS011;12618;54.386;18.394;2022-11-15T08:28:35;44.65;;;22.98;;
24439;SDS011;12618;54.386;18.394;2022-11-15T08:31:06;52.15;;;26.23;;
24439;SDS011;12618;54.386;18.394;2022-11-15T08:33:37;47.13;;;23.57;;
24439;SDS011;12618;54.386;18.394;2022-11-15T08:36:10;43.73;;;23.80;;
24439;SDS011;12618;54.386;18.394;2022-11-15T08:38:44;47.78;;;24.00;;
24439;SDS011;12618;54.386;18.394;2022-11-15T08:41:18;52.58;;;27.10;;
24439;SDS011;12618;54.386;18.394;2022-11-15T08:43:52;50.23;;;25.92;;
24439;SDS011;12618;54.386;18.394;2022-11-15T08:46:22;47.35;;;25.57;;
24439;SDS011;12618;54.386;18.394;2022-11-15T08:48:53;48.85;;;25.05;;
24439;SDS011;12618;54.386;18.394;2022-11-15T08:51:25;45.28;;;23.83;;
24439;SDS011;12618;54.386;18.394;2022-11-15T08:53:55;48.35;;;24.15;;
24439;SDS011;12618;54.386;18.394;2022-11-15T08:56:26;50.73;;;25.20;;
24439;SDS011;12618;54.386;18.394;2022-11-15T08:58:56;49.20;;;24.65;;
24439;SDS011;12618;54.386;18.394;2022-11-15T09:01:27;51.33;;;27.42;;
24439;SDS011;12618;54.386;18.394;2022-11-15T09:03:58;48.13;;;25.77;;
24439;SDS011;12618;54.386;18.394;2022-11-15T09:06:28;42.13;;;23.10;;
24439;SDS011;12618;54.386;18.394;2022-11-15T09:09:00;39.20;;;21.30;;
24439;SDS011;12618;54.386;18.394;2022-11-15T09:11:31;39.53;;;21.48;;
24439;SDS011;12618;54.386;18.394;2022-11-15T09:14:02;37.80;;;21.00;;
24439;SDS011;12618;54.386;18.394;2022-11-15T09:16:33;38.85;;;21.75;;
24439;SDS011;12618;54.386;18.394;2022-11-15T09:19:04;39.27;;;21.27;;
24439;SDS011;12618;54.386;18.394;2022-11-15T09:21:35;41.85;;;21.62;;
24439;SDS011;12618;54.386;18.394;2022-11-15T09:24:05;48.23;;;24.00;;
24439;SDS011;12618;54.386;18.394;2022-11-15T09:26:36;47.93;;;24.95;;
24439;SDS011;12618;54.386;18.394;2022-11-15T09:29:07;42.80;;;23.00;;
24439;SDS011;12618;54.386;18.394;2022-11-15T09:31:38;41.40;;;22.05;;
24439;SDS011;12618;54.386;18.394;2022-11-15T09:34:08;38.42;;;20.90;;
24439;SDS011;12618;54.386;18.394;2022-11-15T09:36:41;37.13;;;20.80;;
24439;SDS011;12618;54.386;18.394;2022-11-15T09:39:12;44.08;;;25.43;;
24439;SDS011;12618;54.386;18.394;2022-11-15T09:42:00;39.15;;;20.88;;
24439;SDS011;12618;54.386;18.394;2022-11-15T09:44:43;34.48;;;19.35;;
24439;SDS011;12618;54.386;18.394;2022-11-15T09:50:11;38.23;;;19.37;;
24439;SDS011;12618;54.386;18.394;2022-11-15T09:52:44;32.08;;;18.32;;
24439;SDS011;12618;54.386;18.394;2022-11-15T09:55:15;32.88;;;18.80;;
24439;SDS011;12618;54.386;18.394;2022-11-15T09:57:58;33.67;;;18.15;;
24439;SDS011;12618;54.386;18.394;2022-11-15T10:00:35;34.92;;;19.82;;
24439;SDS011;12618;54.386;18.394;2022-11-15T10:03:13;34.13;;;19.23;;
24439;SDS011;12618;54.386;18.394;2022-11-15T10:05:46;29.90;;;17.82;;
24439;SDS011;12618;54.386;18.394;2022-11-15T10:11:19;38.17;;;22.75;;
24439;SDS011;12618;54.386;18.394;2022-11-15T10:13:52;44.50;;;24.70;;
24439;SDS011;12618;54.386;18.394;2022-11-15T10:16:40;37.75;;;22.15;;
24439;SDS011;12618;54.386;18.394;2022-11-15T10:19:07;40.73;;;23.52;;
24439;SDS011;12618;54.386;18.394;2022-11-15T10:21:53;38.20;;;21.02;;
24439;SDS011;12618;54.386;18.394;2022-11-15T10:24:27;33.88;;;19.52;;
24439;SDS011;12618;54.386;18.394;2022-11-15T10:29:30;36.77;;;20.52;;
24439;SDS011;12618;54.386;18.394;2022-11-15T10:32:01;40.45;;;21.75;;
24439;SDS011;12618;54.386;18.394;2022-11-15T10:34:34;40.67;;;23.47;;
24439;SDS011;12618;54.386;18.394;2022-11-15T10:37:06;40.08;;;22.13;;
24439;SDS011;12618;54.386;18.394;2022-11-15T10:39:36;41.37;;;23.30;;
24439;SDS011;12618;54.386;18.394;2022-11-15T10:42:17;44.60;;;24.43;;
24439;SDS011;12618;54.386;18.394;2022-11-15T10:44:50;44.60;;;23.92;;
24439;SDS011;12618;54.386;18.394;2022-11-15T10:47:31;35.83;;;20.35;;
24439;SDS011;12618;54.386;18.394;2022-11-15T10:50:04;34.43;;;20.10;;
24439;SDS011;12618;54.386;18.394;2022-11-15T10:52:37;34.08;;;19.48;;
24439;SDS011;12618;54.386;18.394;2022-11-15T10:57:50;32.58;;;19.60;;
24439;SDS011;12618;54.386;18.394;2022-11-15T11:03:04;29.60;;;17.90;;
24439;SDS011;12618;54.386;18.394;2022-11-15T11:06:07;30.27;;;18.17;;
24439;SDS011;12618;54.386;18.394;2022-11-15T11:08:37;29.80;;;18.42;;
24439;SDS011;12618;54.386;18.394;2022-11-15T11:11:08;32.33;;;20.30;;
24439;SDS011;12618;54.386;18.394;2022-11-15T11:13:40;32.78;;;19.60;;
24439;SDS011;12618;54.386;18.394;2022-11-15T11:24:45;32.83;;;19.23;;
24439;SDS011;12618;54.386;18.394;2022-11-15T11:32:58;34.15;;;20.15;;
24439;SDS011;12618;54.386;18.394;2022-11-15T11:35:50;33.23;;;20.10;;
24439;SDS011;12618;54.386;18.394;2022-11-15T11:38:31;38.23;;;21.65;;
24439;SDS011;12618;54.386;18.394;2022-11-15T11:46:38;34.55;;;19.65;;
24439;SDS011;12618;54.386;18.394;2022-11-15T11:49:09;35.00;;;20.95;;
24439;SDS011;12618;54.386;18.394;2022-11-15T11:52:07;38.17;;;21.17;;
24439;SDS011;12618;54.386;18.394;2022-11-15T11:54:49;35.28;;;21.15;;
24439;SDS011;12618;54.386;18.394;2022-11-15T12:00:03;36.73;;;21.65;;
24439;SDS011;12618;54.386;18.394;2022-11-15T12:02:37;33.25;;;20.48;;
24439;SDS011;12618;54.386;18.394;2022-11-15T12:05:20;33.53;;;19.23;;
24439;SDS011;12618;54.386;18.394;2022-11-15T12:08:56;30.75;;;18.10;;
24439;SDS011;12618;54.386;18.394;2022-11-15T12:13:42;39.30;;;26.55;;
24439;SDS011;12618;54.386;18.394;2022-11-15T12:18:50;39.23;;;22.80;;
24439;SDS011;12618;54.386;18.394;2022-11-15T12:27:08;43.17;;;23.55;;
24439;SDS011;12618;54.386;18.394;2022-11-15T12:29:54;39.95;;;22.50;;
24439;SDS011;12618;54.386;18.394;2022-11-15T12:32:32;39.48;;;22.40;;
24439;SDS011;12618;54.386;18.394;2022-11-15T12:35:05;46.55;;;26.15;;
24439;SDS011;12618;54.386;18.394;2022-11-15T12:40:25;39.90;;;22.50;;
24439;SDS011;12618;54.386;18.394;2022-11-15T12:43:03;41.15;;;22.50;;
24439;SDS011;12618;54.386;18.394;2022-11-15T12:45:36;39.88;;;22.15;;
24439;SDS011;12618;54.386;18.394;2022-11-15T13:06:58;50.75;;;25.27;;
24439;SDS011;12618;54.386;18.394;2022-11-15T13:17:52;47.53;;;24.47;;
24439;SDS011;12618;54.386;18.394;2022-11-15T13:23:07;54.38;;;27.80;;
24439;SDS011;12618;54.386;18.394;2022-11-15T13:25:52;55.55;;;27.30;;
24439;SDS011;12618;54.386;18.394;2022-11-15T13:28:43;54.48;;;28.15;;
24439;SDS011;12618;54.386;18.394;2022-11-15T13:34:01;58.08;;;29.98;;
24439;SDS011;12618;54.386;18.394;2022-11-15T13:36:45;70.90;;;31.87;;
24439;SDS011;12618;54.386;18.394;2022-11-15T13:41:56;59.20;;;29.00;;
24439;SDS011;12618;54.386;18.394;2022-11-15T13:44:32;61.45;;;29.23;;
24439;SDS011;12618;54.386;18.394;2022-11-15T13:47:13;58.63;;;28.15;;
24439;SDS011;12618;54.386;18.394;2022-11-15T13:49:46;57.03;;;28.10;;
24439;SDS011;12618;54.386;18.394;2022-11-15T13:52:17;58.55;;;28.98;;
24439;SDS011;12618;54.386;18.394;2022-11-15T13:57:48;63.95;;;30.52;;
24439;SDS011;12618;54.386;18.394;2022-11-15T14:00:34;58.50;;;29.05;;
24439;SDS011;12618;54.386;18.394;2022-11-15T14:06:06;63.13;;;29.67;;
24439;SDS011;12618;54.386;18.394;2022-11-15T14:08:42;58.10;;;28.83;;
24439;SDS011;12618;54.386;18.394;2022-11-15T14:11:32;60.58;;;29.82;;
24439;SDS011;12618;54.386;18.394;2022-11-15T14:16:46;69.85;;;33.40;;
24439;SDS011;12618;54.386;18.394;2022-11-15T14:30:39;66.82;;;31.50;;
24439;SDS011;12618;54.386;18.394;2022-11-15T14:33:18;69.85;;;32.33;;
24439;SDS011;12618;54.386;18.394;2022-11-15T14:35:54;69.97;;;34.48;;
24439;SDS011;12618;54.386;18.394;2022-11-15T14:38:27;63.25;;;31.50;;
24439;SDS011;12618;54.386;18.394;2022-11-15T14:41:01;59.13;;;28.05;;
24439;SDS011;12618;54.386;18.394;2022-11-15T14:43:30;50.83;;;24.77;;
24439;SDS011;12618;54.386;18.394;2022-11-15T14:46:01;47.75;;;25.15;;
24439;SDS011;12618;54.386;18.394;2022-11-15T14:48:32;44.23;;;23.57;;
24439;SDS011;12618;54.386;18.394;2022-11-15T14:51:02;50.98;;;23.38;;
24439;SDS011;12618;54.386;18.394;2022-11-15T14:53:33;42.27;;;22.55;;
24439;SDS011;12618;54.386;18.394;2022-11-15T14:56:09;47.53;;;23.38;;
24439;SDS011;12618;54.386;18.394;2022-11-15T14:58:37;44.57;;;23.33;;
24439;SDS011;12618;54.386;18.394;2022-11-15T15:01:13;39.92;;;22.25;;
24439;SDS011;12618;54.386;18.394;2022-11-15T15:03:45;43.38;;;21.55;;
24439;SDS011;12618;54.386;18.394;2022-11-15T15:06:16;39.18;;;21.82;;
24439;SDS011;12618;54.386;18.394;2022-11-15T15:08:48;46.25;;;23.77;;
24439;SDS011;12618;54.386;18.394;2022-11-15T15:11:25;41.23;;;20.65;;
24439;SDS011;12618;54.386;18.394;2022-11-15T15:16:26;38.53;;;21.02;;
24439;SDS011;12618;54.386;18.394;2022-11-15T15:18:57;46.53;;;23.90;;
24439;SDS011;12618;54.386;18.394;2022-11-15T15:21:28;42.60;;;22.93;;
24439;SDS011;12618;54.386;18.394;2022-11-15T15:24:01;39.53;;;20.37;;
24439;SDS011;12618;54.386;18.394;2022-11-15T15:26:32;38.05;;;18.82;;
24439;SDS011;12618;54.386;18.394;2022-11-15T15:29:04;40.95;;;21.27;;
24439;SDS011;12618;54.386;18.394;2022-11-15T15:31:36;36.95;;;19.60;;
24439;SDS011;12618;54.386;18.394;2022-11-15T15:34:08;36.77;;;18.77;;
24439;SDS011;12618;54.386;18.394;2022-11-15T15:36:39;35.35;;;19.35;;
24439;SDS011;12618;54.386;18.394;2022-11-15T15:39:10;33.60;;;17.57;;
24439;SDS011;12618;54.386;18.394;2022-11-15T15:41:42;36.42;;;18.40;;
24439;SDS011;12618;54.386;18.394;2022-11-15T15:44:12;32.93;;;18.82;;
24439;SDS011;12618;54.386;18.394;2022-11-15T15:46:45;37.90;;;19.95;;
24439;SDS011;12618;54.386;18.394;2022-11-15T15:49:16;30.70;;;18.02;;
24439;SDS011;12618;54.386;18.394;2022-11-15T15:51:47;33.25;;;18.70;;
24439;SDS011;12618;54.386;18.394;2022-11-15T15:54:18;34.20;;;18.85;;
24439;SDS011;12618;54.386;18.394;2022-11-15T15:56:49;34.70;;;19.45;;
24439;SDS011;12618;54.386;18.394;2022-11-15T15:59:20;30.15;;;18.23;;
24439;SDS011;12618;54.386;18.394;2022-11-15T16:01:51;34.45;;;21.95;;
24439;SDS011;12618;54.386;18.394;2022-11-15T16:04:22;39.83;;;24.02;;
24439;SDS011;12618;54.386;18.394;2022-11-15T16:07:00;36.38;;;21.00;;
24439;SDS011;12618;54.386;18.394;2022-11-15T16:09:32;79.67;;;48.80;;
24439;SDS011;12618;54.386;18.394;2022-11-15T16:12:21;70.70;;;44.25;;
24439;SDS011;12618;54.386;18.394;2022-11-15T16:14:52;44.48;;;28.38;;
24439;SDS011;12618;54.386;18.394;2022-11-15T16:17:24;42.70;;;26.68;;
24439;SDS011;12618;54.386;18.394;2022-11-15T16:19:56;43.70;;;26.37;;
24439;SDS011;12618;54.386;18.394;2022-11-15T16:22:27;41.13;;;25.75;;
24439;SDS011;12618;54.386;18.394;2022-11-15T16:24:59;38.02;;;23.07;;
24439;SDS011;12618;54.386;18.394;2022-11-15T16:27:29;38.53;;;24.05;;
24439;SDS011;12618;54.386;18.394;2022-11-15T16:30:00;33.33;;;22.30;;
24439;SDS011;12618;54.386;18.394;2022-11-15T16:32:31;35.95;;;21.37;;
24439;SDS011;12618;54.386;18.394;2022-11-15T16:35:03;29.60;;;18.50;;
24439;SDS011;12618;54.386;18.394;2022-11-15T16:37:40;30.80;;;18.77;;
24439;SDS011;12618;54.386;18.394;2022-11-15T16:40:17;118.10;;;57.55;;
24439;SDS011;12618;54.386;18.394;2022-11-15T16:43:04;64.53;;;35.25;;
24439;SDS011;12618;54.386;18.394;2022-11-15T16:45:35;49.73;;;27.25;;
24439;SDS011;12618;54.386;18.394;2022-11-15T16:48:07;69.60;;;36.88;;
24439;SDS011;12618;54.386;18.394;2022-11-15T16:50:41;53.17;;;32.17;;
24439;SDS011;12618;54.386;18.394;2022-11-15T16:53:12;93.70;;;62.93;;
24439;SDS011;12618;54.386;18.394;2022-11-15T16:55:43;76.75;;;49.48;;
24439;SDS011;12618;54.386;18.394;2022-11-15T16:58:17;58.00;;;35.73;;
24439;SDS011;12618;54.386;18.394;2022-11-15T17:00:53;72.20;;;42.73;;
24439;SDS011;12618;54.386;18.394;2022-11-15T17:03:29;62.58;;;38.05;;